createdAt,value
2024-02-16T00:00:17.917Z,77.41
2024-02-16T00:01:14.758Z,76.69
2024-02-16T00:02:11.412Z,75.75
2024-02-16T00:03:08.068Z,76.05
2024-02-16T00:04:04.753Z,75.63
2024-02-16T00:05:01.576Z,75.64
2024-02-16T00:05:58.352Z,75.94
2024-02-16T00:06:55.261Z,75.94
2024-02-16T00:07:51.979Z,75.97
2024-02-16T00:08:48.618Z,75.36
2024-02-16T00:09:45.218Z,74.89
2024-02-16T00:10:41.874Z,75.86
2024-02-16T00:11:38.851Z,75.75
2024-02-16T00:12:36.219Z,78.37
2024-02-16T00:13:33.435Z,79.90
2024-02-16T00:14:30.136Z,78.95
2024-02-16T00:15:26.791Z,78.61
2024-02-16T00:16:23.569Z,78.62
2024-02-16T00:17:20.237Z,77.15
2024-02-16T00:18:17.010Z,76.87
2024-02-16T00:19:13.801Z,76.59
2024-02-16T00:20:13.673Z,77.05
2024-02-16T00:21:10.616Z,76.94
2024-02-16T00:22:10.386Z,79.06
2024-02-16T00:23:07.991Z,79.23
2024-02-16T00:24:05.007Z,78.29
2024-02-16T00:25:02.083Z,77.26
2024-02-16T00:25:58.772Z,78.68
2024-02-16T00:26:55.518Z,77.58
2024-02-16T00:27:54.328Z,77.87
2024-02-16T00:28:51.032Z,77.69
2024-02-16T00:29:47.732Z,77.63
2024-02-16T00:30:44.330Z,77.49
2024-02-16T00:31:40.991Z,80.18
2024-02-16T00:32:38.162Z,81.21
2024-02-16T00:33:35.194Z,81.07
2024-02-16T00:34:32.071Z,80.92
2024-02-16T00:35:28.739Z,80.14
2024-02-16T00:36:27.537Z,80.04
2024-02-16T00:37:25.749Z,80.44
2024-02-16T00:38:23.711Z,81.32
2024-02-16T00:39:20.727Z,81.21
2024-02-16T00:40:17.465Z,81.20
2024-02-16T00:41:24.017Z,80.51
2024-02-16T00:42:20.819Z,79.80
2024-02-16T00:43:18.898Z,79.51
2024-02-16T00:44:15.491Z,79.53
2024-02-16T00:45:12.172Z,78.70
2024-02-16T00:46:08.806Z,77.89
2024-02-16T00:47:10.884Z,78.45
2024-02-16T00:48:08.823Z,77.91
2024-02-16T00:49:05.679Z,77.21
2024-02-16T00:50:03.420Z,76.88
2024-02-16T00:51:00.615Z,76.61
2024-02-16T00:51:59.593Z,77.12
2024-02-16T00:52:56.505Z,77.32
2024-02-16T00:53:54.013Z,76.92
2024-02-16T00:54:50.769Z,76.82
2024-02-16T00:55:48.235Z,76.85
2024-02-16T00:56:44.940Z,75.95
2024-02-16T00:57:41.610Z,76.46
2024-02-16T00:58:40.807Z,75.13
2024-02-16T00:59:37.426Z,76.24
2024-02-16T01:00:34.287Z,75.91
2024-02-16T01:01:31.161Z,76.59
2024-02-16T01:02:30.142Z,76.63
2024-02-16T01:03:27.451Z,76.54
2024-02-16T01:04:24.481Z,76.57
2024-02-16T01:05:21.215Z,76.14
2024-02-16T01:06:17.900Z,76.55
2024-02-16T01:07:14.583Z,75.72
2024-02-16T01:08:11.445Z,75.98
2024-02-16T01:09:08.168Z,76.81
2024-02-16T01:10:05.226Z,77.28
2024-02-16T01:11:02.033Z,77.80
2024-02-16T01:11:58.698Z,77.52
2024-02-16T01:12:57.167Z,77.80
2024-02-16T01:13:53.809Z,77.53
2024-02-16T01:14:50.457Z,78.05
2024-02-16T01:15:47.136Z,77.90
2024-02-16T01:16:44.175Z,79.10
2024-02-16T01:17:41.073Z,79.54
2024-02-16T01:18:38.766Z,78.57
2024-02-16T01:19:35.662Z,77.58
2024-02-16T01:20:32.747Z,77.86
2024-02-16T01:21:29.506Z,78.26
2024-02-16T01:22:26.542Z,79.66
2024-02-16T01:23:23.260Z,79.23
2024-02-16T01:24:22.363Z,80.22
2024-02-16T01:25:19.470Z,80.83
2024-02-16T01:26:16.364Z,81.93
2024-02-16T01:27:13.153Z,81.61
2024-02-16T01:28:09.790Z,82.09
2024-02-16T01:29:06.783Z,81.83
2024-02-16T01:30:04.926Z,81.64
2024-02-16T01:31:01.728Z,82.25
2024-02-16T01:31:58.821Z,82.15
2024-02-16T01:32:56.212Z,82.11
2024-02-16T01:33:53.785Z,82.60
2024-02-16T01:34:51.253Z,82.48
2024-02-16T01:35:47.901Z,82.33
2024-02-16T01:36:44.608Z,82.33
2024-02-16T01:37:41.941Z,82.92
2024-02-16T01:38:38.525Z,83.15
2024-02-16T01:39:35.153Z,82.80
2024-02-16T01:40:31.739Z,83.17
2024-02-16T01:41:28.313Z,82.71
2024-02-16T01:42:24.939Z,83.48
2024-02-16T01:43:22.396Z,82.81
2024-02-16T01:44:19.068Z,84.34
2024-02-16T01:45:17.513Z,84.50
2024-02-16T01:46:14.327Z,84.04
2024-02-16T01:47:11.121Z,83.64
2024-02-16T01:48:08.694Z,83.89
2024-02-16T01:49:05.631Z,84.29
2024-02-16T01:50:03.617Z,83.16
2024-02-16T01:51:05.163Z,84.14
2024-02-16T01:52:02.176Z,82.98
2024-02-16T01:52:58.925Z,81.82
2024-02-16T01:53:56.871Z,82.32
2024-02-16T01:54:53.694Z,82.86
2024-02-16T01:55:51.094Z,83.56
2024-02-16T01:56:48.243Z,84.38
2024-02-16T01:57:46.949Z,85.09
2024-02-16T01:58:43.713Z,85.58
2024-02-16T01:59:41.361Z,85.04
2024-02-16T02:00:38.162Z,85.50
2024-02-16T02:01:34.943Z,85.25
2024-02-16T02:02:31.701Z,85.99
2024-02-16T02:03:28.449Z,85.46
2024-02-16T02:04:25.458Z,85.71
2024-02-16T02:05:22.251Z,86.45
2024-02-16T02:06:19.301Z,86.74
2024-02-16T02:07:17.084Z,86.40
2024-02-16T02:08:14.862Z,86.68
2024-02-16T02:09:11.520Z,86.95
2024-02-16T02:10:08.581Z,87.80
2024-02-16T02:11:06.770Z,88.08
2024-02-16T02:12:03.556Z,87.73
2024-02-16T02:13:00.292Z,87.85
2024-02-16T02:13:56.913Z,88.03
2024-02-16T02:14:53.575Z,87.27
2024-02-16T02:15:50.402Z,86.58
2024-02-16T02:16:51.851Z,86.70
2024-02-16T02:17:55.652Z,86.55
2024-02-16T02:18:52.505Z,85.42
2024-02-16T02:19:49.978Z,86.07
2024-02-16T02:20:46.847Z,84.92
2024-02-16T02:21:43.487Z,84.92
2024-02-16T02:22:40.145Z,85.25
2024-02-16T02:23:36.809Z,85.49
2024-02-16T02:24:33.723Z,85.86
2024-02-16T02:25:30.937Z,86.19
2024-02-16T02:26:27.562Z,86.13
2024-02-16T02:27:24.194Z,86.40
2024-02-16T02:28:21.059Z,86.35
2024-02-16T02:29:17.693Z,86.28
2024-02-16T02:30:14.470Z,86.08
2024-02-16T02:31:11.152Z,86.51
2024-02-16T02:32:08.626Z,86.38
2024-02-16T02:33:06.112Z,86.37
2024-02-16T02:34:03.146Z,86.13
2024-02-16T02:35:00.113Z,86.32
2024-02-16T02:35:56.814Z,86.11
2024-02-16T02:36:53.544Z,86.53
2024-02-16T02:37:50.148Z,87.43
2024-02-16T02:38:46.885Z,87.50
2024-02-16T02:39:45.223Z,87.43
2024-02-16T02:40:41.991Z,87.53
2024-02-16T02:41:38.644Z,87.12
2024-02-16T02:42:36.043Z,87.20
2024-02-16T02:43:32.649Z,86.13
2024-02-16T02:44:30.502Z,86.51
2024-02-16T02:45:27.193Z,86.44
2024-02-16T02:46:25.253Z,86.93
2024-02-16T02:47:22.032Z,87.24
2024-02-16T02:48:19.437Z,88.22
2024-02-16T02:49:16.269Z,88.06
2024-02-16T02:50:13.200Z,88.20
2024-02-16T02:51:10.736Z,88.10
2024-02-16T02:52:07.836Z,87.94
2024-02-16T02:53:04.785Z,87.45
2024-02-16T02:54:01.448Z,87.55
2024-02-16T02:54:58.028Z,88.23
2024-02-16T02:55:54.785Z,87.87
2024-02-16T02:56:51.459Z,87.31
2024-02-16T02:57:48.132Z,88.82
2024-02-16T02:58:44.965Z,89.62
2024-02-16T02:59:41.591Z,89.36
2024-02-16T03:00:38.254Z,88.48
2024-02-16T03:01:36.881Z,88.39
2024-02-16T03:02:33.605Z,88.09
2024-02-16T03:03:30.806Z,88.33
2024-02-16T03:04:27.565Z,88.32
2024-02-16T03:05:24.197Z,88.64
2024-02-16T03:06:21.238Z,89.14
2024-02-16T03:07:18.066Z,89.72
2024-02-16T03:08:14.880Z,90.00
2024-02-16T03:09:13.824Z,89.58
2024-02-16T03:10:12.189Z,89.70
2024-02-16T03:11:08.906Z,88.91
2024-02-16T03:12:05.879Z,88.44
2024-02-16T03:13:04.019Z,89.41
2024-02-16T03:14:00.633Z,89.90
2024-02-16T03:14:57.357Z,89.90
2024-02-16T03:15:54.322Z,89.52
2024-02-16T03:16:50.996Z,89.15
2024-02-16T03:17:47.795Z,88.86
2024-02-16T03:18:45.461Z,89.67
2024-02-16T03:19:42.297Z,90.22
2024-02-16T03:20:38.924Z,89.63
2024-02-16T03:21:35.876Z,89.13
2024-02-16T03:22:32.497Z,88.60
2024-02-16T03:23:29.193Z,89.13
2024-02-16T03:24:25.888Z,88.74
2024-02-16T03:25:22.601Z,88.61
2024-02-16T03:26:21.368Z,89.82
2024-02-16T03:27:18.121Z,90.07
2024-02-16T03:28:15.022Z,90.76
2024-02-16T03:29:11.653Z,90.14
2024-02-16T03:30:09.350Z,89.85
2024-02-16T03:31:06.030Z,89.28
2024-02-16T03:32:02.881Z,88.63
2024-02-16T03:32:59.756Z,88.38
2024-02-16T03:33:57.219Z,89.21
2024-02-16T03:34:54.200Z,89.39
2024-02-16T03:35:51.053Z,89.37
2024-02-16T03:36:47.682Z,89.41
2024-02-16T03:37:44.293Z,89.10
2024-02-16T03:38:45.016Z,88.50
2024-02-16T03:39:42.151Z,88.12
2024-02-16T03:40:38.804Z,88.56
2024-02-16T03:41:35.793Z,88.14
2024-02-16T03:42:32.956Z,87.83
2024-02-16T03:43:29.741Z,88.18
2024-02-16T03:44:26.458Z,88.10
2024-02-16T03:45:24.519Z,87.58
2024-02-16T03:46:21.429Z,87.27
2024-02-16T03:47:18.047Z,86.82
2024-02-16T03:48:14.693Z,86.87
2024-02-16T03:49:12.005Z,87.44
2024-02-16T03:50:09.331Z,88.50
2024-02-16T03:51:06.026Z,87.51
2024-02-16T03:52:02.984Z,87.80
2024-02-16T03:53:00.682Z,86.70
2024-02-16T03:53:57.460Z,86.05
2024-02-16T03:54:54.092Z,85.79
2024-02-16T03:55:51.489Z,86.94
2024-02-16T03:56:49.055Z,87.19
2024-02-16T03:57:45.751Z,86.95
2024-02-16T03:58:42.557Z,87.55
2024-02-16T03:59:39.156Z,87.26
2024-02-16T04:00:36.035Z,87.05
2024-02-16T04:01:32.796Z,86.68
2024-02-16T04:02:29.491Z,85.88
2024-02-16T04:03:26.150Z,85.43
2024-02-16T04:04:22.872Z,84.15
2024-02-16T04:05:19.500Z,83.84
2024-02-16T04:06:16.231Z,84.80
2024-02-16T04:07:13.443Z,83.81
2024-02-16T04:08:10.082Z,83.11
2024-02-16T04:09:07.427Z,83.55
2024-02-16T04:10:04.414Z,84.66
2024-02-16T04:11:01.092Z,83.77
2024-02-16T04:11:57.906Z,84.11
2024-02-16T04:12:54.589Z,84.09
2024-02-16T04:13:51.167Z,84.18
2024-02-16T04:14:47.788Z,84.48
2024-02-16T04:15:44.522Z,84.58
2024-02-16T04:16:44.913Z,84.06
2024-02-16T04:17:41.593Z,84.36
2024-02-16T04:18:38.356Z,85.29
2024-02-16T04:19:35.157Z,85.49
2024-02-16T04:20:31.920Z,84.79
2024-02-16T04:21:28.671Z,85.46
2024-02-16T04:22:25.402Z,85.90
2024-02-16T04:23:22.233Z,86.14
2024-02-16T04:24:19.306Z,86.78
2024-02-16T04:25:16.011Z,87.27
2024-02-16T04:26:13.262Z,86.46
2024-02-16T04:27:09.945Z,85.85
2024-02-16T04:28:06.706Z,86.94
2024-02-16T04:29:05.697Z,86.54
2024-02-16T04:30:05.954Z,86.14
2024-02-16T04:31:03.067Z,85.65
2024-02-16T04:31:59.768Z,86.28
2024-02-16T04:32:56.512Z,87.04
2024-02-16T04:33:54.638Z,87.09
2024-02-16T04:34:53.986Z,87.86
2024-02-16T04:35:51.926Z,88.46
2024-02-16T04:36:48.817Z,88.41
2024-02-16T04:37:45.527Z,87.89
2024-02-16T04:38:42.330Z,87.04
2024-02-16T04:39:39.023Z,87.58
2024-02-16T04:40:38.177Z,87.79
2024-02-16T04:41:34.811Z,88.32
2024-02-16T04:42:31.712Z,88.55
2024-02-16T04:43:28.380Z,88.72
2024-02-16T04:44:25.434Z,88.43
2024-02-16T04:45:22.189Z,88.24
2024-02-16T04:46:18.944Z,88.44
2024-02-16T04:47:15.622Z,89.27
2024-02-16T04:48:13.464Z,89.68
2024-02-16T04:49:10.198Z,89.70
2024-02-16T04:50:10.945Z,90.46
2024-02-16T04:51:07.786Z,90.87
2024-02-16T04:52:05.081Z,90.86
2024-02-16T04:53:05.341Z,89.95
2024-02-16T04:54:02.101Z,88.46
2024-02-16T04:54:58.739Z,88.25
2024-02-16T04:55:55.391Z,87.91
2024-02-16T04:56:52.283Z,88.38
2024-02-16T04:57:48.958Z,89.51
2024-02-16T04:58:45.636Z,90.51
2024-02-16T04:59:42.459Z,91.46
2024-02-16T05:00:39.942Z,91.13
2024-02-16T05:01:36.761Z,91.14
2024-02-16T05:02:33.574Z,90.99
2024-02-16T05:03:30.323Z,91.06
2024-02-16T05:04:27.093Z,91.53
2024-02-16T05:05:23.771Z,92.26
2024-02-16T05:06:20.442Z,93.49
2024-02-16T05:07:17.261Z,94.08
2024-02-16T05:08:13.894Z,94.25
2024-02-16T05:09:10.625Z,95.45
2024-02-16T05:10:10.098Z,95.95
2024-02-16T05:11:08.830Z,95.92
2024-02-16T05:12:05.918Z,96.33
2024-02-16T05:13:02.617Z,95.97
2024-02-16T05:13:59.333Z,95.63
2024-02-16T05:14:56.476Z,95.94
2024-02-16T05:15:55.910Z,97.04
2024-02-16T05:16:53.367Z,96.92
2024-02-16T05:17:50.940Z,96.93
2024-02-16T05:18:47.750Z,97.98
2024-02-16T05:19:44.443Z,98.36
2024-02-16T05:20:41.915Z,98.97
2024-02-16T05:21:38.644Z,99.33
2024-02-16T05:22:35.460Z,99.31
2024-02-16T05:23:32.430Z,98.98
2024-02-16T05:24:29.262Z,99.74
2024-02-16T05:25:26.125Z,99.15
2024-02-16T05:26:22.699Z,98.57
2024-02-16T05:27:19.458Z,98.01
2024-02-16T05:28:16.235Z,98.06
2024-02-16T05:29:12.888Z,98.03
2024-02-16T05:30:15.786Z,98.39
2024-02-16T05:31:18.462Z,98.06
2024-02-16T05:32:15.302Z,98.18
2024-02-16T05:33:12.438Z,97.72
2024-02-16T05:34:09.278Z,98.08
2024-02-16T05:35:14.471Z,98.75
2024-02-16T05:36:11.273Z,98.93
2024-02-16T05:37:08.067Z,99.24
2024-02-16T05:38:11.951Z,99.24
2024-02-16T05:39:21.822Z,98.63
2024-02-16T05:40:28.181Z,98.34
2024-02-16T05:41:25.334Z,98.26
2024-02-16T05:42:25.296Z,98.29
2024-02-16T05:43:21.942Z,97.92
2024-02-16T05:44:18.620Z,97.89
2024-02-16T05:45:16.088Z,97.90
2024-02-16T05:46:17.339Z,97.72
2024-02-16T05:47:14.079Z,97.92
2024-02-16T05:48:11.882Z,99.22
2024-02-16T05:49:08.858Z,98.98
2024-02-16T05:50:08.026Z,99.71
2024-02-16T05:51:06.659Z,99.69
2024-02-16T05:52:19.061Z,100.00
2024-02-16T05:53:15.841Z,99.46
2024-02-16T05:54:13.587Z,100.00
2024-02-16T05:55:11.842Z,99.49
2024-02-16T05:56:08.792Z,99.06
2024-02-16T05:57:05.544Z,98.63
2024-02-16T05:58:02.198Z,98.69
2024-02-16T05:58:58.801Z,98.41
2024-02-16T05:59:57.052Z,98.67
2024-02-16T06:00:55.922Z,98.71
2024-02-16T06:01:52.735Z,98.05
2024-02-16T06:02:49.529Z,98.50
2024-02-16T06:03:46.271Z,98.60
2024-02-16T06:04:43.026Z,99.44
2024-02-16T06:05:40.189Z,99.21
2024-02-16T06:06:40.208Z,99.39
2024-02-16T06:07:39.613Z,99.19
2024-02-16T06:08:36.466Z,98.96
2024-02-16T06:09:36.709Z,98.69
2024-02-16T06:10:33.816Z,97.98
2024-02-16T06:11:30.574Z,97.77
2024-02-16T06:12:27.288Z,97.57
2024-02-16T06:13:24.484Z,96.98
2024-02-16T06:14:24.124Z,96.94
2024-02-16T06:15:20.884Z,97.00
2024-02-16T06:16:17.813Z,96.88
2024-02-16T06:17:15.836Z,96.56
2024-02-16T06:18:12.715Z,96.30
2024-02-16T06:19:10.108Z,95.67
2024-02-16T06:20:10.660Z,92.74
2024-02-16T06:21:07.406Z,89.54
2024-02-16T06:22:04.495Z,87.98
2024-02-16T06:23:01.089Z,87.01
2024-02-16T06:23:57.745Z,85.15
2024-02-16T06:24:54.546Z,84.60
2024-02-16T06:25:51.169Z,85.83
2024-02-16T06:26:47.969Z,84.35
2024-02-16T06:27:44.948Z,83.91
2024-02-16T06:28:41.717Z,83.55
2024-02-16T06:29:38.503Z,82.83
2024-02-16T06:30:35.216Z,82.60
2024-02-16T06:31:31.868Z,82.41
2024-02-16T06:32:30.000Z,83.39
2024-02-16T06:33:26.821Z,85.91
2024-02-16T06:34:23.974Z,85.82
2024-02-16T06:35:20.875Z,86.27
2024-02-16T06:36:18.620Z,86.96
2024-02-16T06:37:16.200Z,87.65
2024-02-16T06:38:12.836Z,87.42
2024-02-16T06:39:11.704Z,87.62
2024-02-16T06:40:11.645Z,87.71
2024-02-16T06:41:09.074Z,88.52
2024-02-16T06:42:05.876Z,88.61
2024-02-16T06:43:02.521Z,88.59
2024-02-16T06:43:59.389Z,88.02
2024-02-16T06:44:56.057Z,87.56
2024-02-16T06:45:52.800Z,88.69
2024-02-16T06:46:49.359Z,88.70
2024-02-16T06:47:46.302Z,88.68
2024-02-16T06:48:43.798Z,88.96
2024-02-16T06:49:40.527Z,88.30
2024-02-16T06:50:37.142Z,88.25
2024-02-16T06:51:33.967Z,88.48
2024-02-16T06:52:30.732Z,88.85
2024-02-16T06:53:27.785Z,89.37
2024-02-16T06:54:27.272Z,89.13
2024-02-16T06:55:23.951Z,89.60
2024-02-16T06:56:20.834Z,89.28
2024-02-16T06:57:17.803Z,88.92
2024-02-16T06:58:14.514Z,89.27
2024-02-16T06:59:11.144Z,88.06
2024-02-16T07:00:10.089Z,87.48
2024-02-16T07:01:06.968Z,88.52
2024-02-16T07:02:04.139Z,88.73
2024-02-16T07:03:00.824Z,89.53
2024-02-16T07:03:57.602Z,88.13
2024-02-16T07:04:54.284Z,88.23
2024-02-16T07:05:51.026Z,87.97
2024-02-16T07:06:48.105Z,87.31
2024-02-16T07:07:44.781Z,87.01
2024-02-16T07:08:42.004Z,87.72
2024-02-16T07:09:40.497Z,88.80
2024-02-16T07:10:37.221Z,88.60
2024-02-16T07:11:36.172Z,87.94
2024-02-16T07:12:35.170Z,87.24
2024-02-16T07:13:35.518Z,87.12
2024-02-16T07:14:32.197Z,86.75
2024-02-16T07:15:29.080Z,86.46
2024-02-16T07:16:25.925Z,86.32
2024-02-16T07:17:22.764Z,87.59
2024-02-16T07:18:19.512Z,88.60
2024-02-16T07:19:16.420Z,86.94
2024-02-16T07:20:16.711Z,87.00
2024-02-16T07:21:13.863Z,86.31
2024-02-16T07:22:11.285Z,85.81
2024-02-16T07:23:08.275Z,86.09
2024-02-16T07:24:05.353Z,86.71
2024-02-16T07:25:02.076Z,86.59
2024-02-16T07:25:59.486Z,85.27
2024-02-16T07:26:56.228Z,84.98
2024-02-16T07:27:53.925Z,84.80
2024-02-16T07:28:50.682Z,84.68
2024-02-16T07:29:47.906Z,84.80
2024-02-16T07:30:44.750Z,85.81
2024-02-16T07:31:41.411Z,86.18
2024-02-16T07:32:38.167Z,85.52
2024-02-16T07:33:35.301Z,84.44
2024-02-16T07:34:32.150Z,83.56
2024-02-16T07:35:28.820Z,82.97
2024-02-16T07:36:25.478Z,83.71
2024-02-16T07:37:22.123Z,84.82
2024-02-16T07:38:18.935Z,84.10
2024-02-16T07:39:15.969Z,83.11
2024-02-16T07:40:12.777Z,84.22
2024-02-16T07:41:09.859Z,84.84
2024-02-16T07:42:06.859Z,81.17
2024-02-16T07:43:04.395Z,81.47
2024-02-16T07:44:01.075Z,79.96
2024-02-16T07:44:57.693Z,78.28
2024-02-16T07:45:57.728Z,79.94
2024-02-16T07:46:54.398Z,79.75
2024-02-16T07:47:51.928Z,78.75
2024-02-16T07:48:48.977Z,77.96
2024-02-16T07:49:46.288Z,77.63
2024-02-16T07:50:43.186Z,77.95
2024-02-16T07:51:41.279Z,75.51
2024-02-16T07:52:40.266Z,75.34
2024-02-16T07:53:37.444Z,76.54
2024-02-16T07:54:34.305Z,77.64
2024-02-16T07:55:31.058Z,76.58
2024-02-16T07:56:27.734Z,77.42
2024-02-16T07:57:24.671Z,78.27
2024-02-16T07:58:21.349Z,76.91
2024-02-16T07:59:20.119Z,77.39
2024-02-16T08:00:17.607Z,76.60
2024-02-16T08:01:17.122Z,77.18
2024-02-16T08:02:16.868Z,75.74
2024-02-16T08:03:13.636Z,76.50
2024-02-16T08:04:10.301Z,78.29
2024-02-16T08:05:10.102Z,79.82
2024-02-16T08:06:07.197Z,78.89
2024-02-16T08:07:04.212Z,80.24
2024-02-16T08:08:00.949Z,80.61
2024-02-16T08:08:57.576Z,78.75
2024-02-16T08:09:54.228Z,79.08
2024-02-16T08:10:52.069Z,77.39
2024-02-16T08:11:48.777Z,77.57
2024-02-16T08:12:45.439Z,75.67
2024-02-16T08:13:42.074Z,75.13
2024-02-16T08:14:42.507Z,73.96
2024-02-16T08:15:39.186Z,73.82
2024-02-16T08:16:35.841Z,73.00
2024-02-16T08:17:32.601Z,72.43
2024-02-16T08:18:29.355Z,72.18
2024-02-16T08:19:33.899Z,74.72
2024-02-16T08:20:30.562Z,74.51
2024-02-16T08:21:27.376Z,75.13
2024-02-16T08:22:24.247Z,73.19
2024-02-16T08:23:21.704Z,72.27
2024-02-16T08:24:18.348Z,72.57
2024-02-16T08:25:15.031Z,71.19
2024-02-16T08:26:11.709Z,71.85
2024-02-16T08:27:08.435Z,71.06
2024-02-16T08:28:06.216Z,69.85
2024-02-16T08:29:02.863Z,70.57
2024-02-16T08:29:59.804Z,72.61
2024-02-16T08:30:56.573Z,70.29
2024-02-16T08:31:53.707Z,70.44
2024-02-16T08:32:50.512Z,68.01
2024-02-16T08:33:48.538Z,68.92
2024-02-16T08:34:45.699Z,68.23
2024-02-16T08:35:42.547Z,68.36
2024-02-16T08:36:41.505Z,67.99
2024-02-16T08:37:38.168Z,68.75
2024-02-16T08:38:34.917Z,69.85
2024-02-16T08:39:32.048Z,69.30
2024-02-16T08:40:29.742Z,68.30
2024-02-16T08:41:26.483Z,67.06
2024-02-16T08:42:24.225Z,66.70
2024-02-16T08:43:20.915Z,67.69
2024-02-16T08:44:17.660Z,67.32
2024-02-16T08:45:14.569Z,66.78
2024-02-16T08:46:11.394Z,66.80
2024-02-16T08:47:08.710Z,65.87
2024-02-16T08:48:05.915Z,64.97
2024-02-16T08:49:03.379Z,65.39
2024-02-16T08:50:00.011Z,65.44
2024-02-16T08:50:56.694Z,66.79
2024-02-16T08:51:53.429Z,66.54
2024-02-16T08:52:50.085Z,65.06
2024-02-16T08:53:46.833Z,64.74
2024-02-16T08:54:46.641Z,64.69
2024-02-16T08:55:43.504Z,64.21
2024-02-16T08:56:40.577Z,64.87
2024-02-16T08:57:37.275Z,64.53
2024-02-16T08:58:34.005Z,63.63
2024-02-16T08:59:31.663Z,64.48
2024-02-16T09:00:29.437Z,63.12
2024-02-16T09:01:36.475Z,64.35
2024-02-16T09:02:33.167Z,65.57
2024-02-16T09:03:29.879Z,65.07
2024-02-16T09:04:26.791Z,64.28
2024-02-16T09:05:24.410Z,64.02
2024-02-16T09:06:21.134Z,63.10
2024-02-16T09:07:17.990Z,63.24
2024-02-16T09:08:14.688Z,64.02
2024-02-16T09:09:12.322Z,63.22
2024-02-16T09:10:09.658Z,63.01
2024-02-16T09:11:06.841Z,64.06
2024-02-16T09:12:03.649Z,67.58
2024-02-16T09:13:00.333Z,67.83
2024-02-16T09:13:57.158Z,68.60
2024-02-16T09:14:53.870Z,68.11
2024-02-16T09:15:52.643Z,69.94
2024-02-16T09:16:55.192Z,70.02
2024-02-16T09:17:52.059Z,70.83
2024-02-16T09:18:51.675Z,69.94
2024-02-16T09:19:48.339Z,68.74
2024-02-16T09:20:45.055Z,68.61
2024-02-16T09:21:41.814Z,69.47
2024-02-16T09:23:43.544Z,71.04
2024-02-16T09:24:42.013Z,71.48
2024-02-16T09:25:39.410Z,71.92
2024-02-16T09:26:36.080Z,72.55
2024-02-16T09:27:32.918Z,72.22
2024-02-16T09:28:30.796Z,67.26
2024-02-16T09:29:27.524Z,64.40
2024-02-16T09:30:24.155Z,64.90
2024-02-16T09:31:20.827Z,64.68
2024-02-16T09:32:17.528Z,61.80
2024-02-16T09:33:15.116Z,62.72
2024-02-16T09:34:12.002Z,61.20
2024-02-16T09:35:10.004Z,61.77
2024-02-16T09:36:07.036Z,60.83
2024-02-16T09:37:04.852Z,61.04
2024-02-16T09:38:01.524Z,61.61
2024-02-16T09:38:58.571Z,59.45
2024-02-16T09:39:55.535Z,62.72
2024-02-16T09:40:52.733Z,60.79
2024-02-16T09:41:53.530Z,62.32
2024-02-16T09:42:50.540Z,60.71
2024-02-16T09:43:47.200Z,60.53
2024-02-16T09:44:44.161Z,59.06
2024-02-16T09:45:41.103Z,61.04
2024-02-16T09:46:37.787Z,59.79
2024-02-16T09:47:38.463Z,60.20
2024-02-16T09:48:35.938Z,59.79
2024-02-16T09:49:39.422Z,60.02
2024-02-16T09:50:37.669Z,59.60
2024-02-16T09:51:38.340Z,59.29
2024-02-16T09:52:35.572Z,59.20
2024-02-16T09:53:32.276Z,60.57
2024-02-16T09:54:28.989Z,59.36
2024-02-16T09:55:26.187Z,59.33
2024-02-16T09:56:23.532Z,57.91
2024-02-16T09:57:20.468Z,58.49
2024-02-16T09:58:20.090Z,59.40
2024-02-16T09:59:16.798Z,59.69
2024-02-16T10:00:14.548Z,57.64
2024-02-16T10:01:22.085Z,58.61
2024-02-16T10:02:18.877Z,58.82
2024-02-16T10:03:29.836Z,59.16
2024-02-16T10:04:26.498Z,57.49
2024-02-16T10:05:23.440Z,57.03
2024-02-16T10:06:23.885Z,58.29
2024-02-16T10:07:31.960Z,59.30
2024-02-16T10:08:28.988Z,58.57
2024-02-16T10:09:33.609Z,57.87
2024-02-16T10:10:32.859Z,59.29
2024-02-16T10:11:29.793Z,57.30
2024-02-16T10:12:26.569Z,57.97
2024-02-16T10:13:23.271Z,58.58
2024-02-16T10:14:20.831Z,55.95
2024-02-16T10:15:24.505Z,57.41
2024-02-16T10:16:21.147Z,58.36
2024-02-16T10:17:18.208Z,59.07
2024-02-16T10:18:15.015Z,58.29
2024-02-16T10:19:14.832Z,59.38
2024-02-16T10:20:19.467Z,58.01
2024-02-16T10:21:28.745Z,59.34
2024-02-16T10:22:25.600Z,57.44
2024-02-16T10:23:22.943Z,57.44
2024-02-16T10:24:23.247Z,57.21
2024-02-16T10:25:19.975Z,57.21
2024-02-16T10:26:16.589Z,58.53
2024-02-16T10:27:18.071Z,57.36
2024-02-16T10:28:15.423Z,55.89
2024-02-16T10:29:12.651Z,56.93
2024-02-16T10:30:13.412Z,56.56
2024-02-16T10:31:10.517Z,55.85
2024-02-16T10:32:07.764Z,54.76
2024-02-16T10:33:06.188Z,57.19
2024-02-16T10:34:07.660Z,56.88
2024-02-16T10:35:09.794Z,55.06
2024-02-16T10:36:09.283Z,55.78
2024-02-16T10:37:07.323Z,56.85
2024-02-16T10:38:11.141Z,55.44
2024-02-16T10:39:09.922Z,56.58
2024-02-16T10:40:13.193Z,57.61
2024-02-16T10:41:10.866Z,56.67
2024-02-16T10:42:08.129Z,57.31
2024-02-16T10:43:09.313Z,56.36
2024-02-16T10:44:07.214Z,56.58
2024-02-16T10:45:05.503Z,56.73
2024-02-16T10:46:03.050Z,55.89
2024-02-16T10:47:00.321Z,55.05
2024-02-16T10:47:57.035Z,54.94
2024-02-16T10:48:54.105Z,56.00
2024-02-16T10:49:51.115Z,57.61
2024-02-16T10:50:52.068Z,56.70
2024-02-16T10:51:54.486Z,56.98
2024-02-16T10:52:52.205Z,56.89
2024-02-16T10:53:52.522Z,56.32
2024-02-16T10:54:49.584Z,56.66
2024-02-16T10:55:47.049Z,57.17
2024-02-16T10:56:43.722Z,56.98
2024-02-16T10:57:41.177Z,55.66
2024-02-16T10:58:38.352Z,56.43
2024-02-16T10:59:45.535Z,55.80
2024-02-16T11:00:55.289Z,57.14
2024-02-16T11:02:01.441Z,55.46
2024-02-16T11:03:00.915Z,55.65
2024-02-16T11:04:09.788Z,57.93
2024-02-16T11:05:10.201Z,56.83
2024-02-16T11:06:19.883Z,56.09
2024-02-16T11:07:18.030Z,54.89
2024-02-16T11:08:17.144Z,55.15
2024-02-16T11:09:31.052Z,56.33
2024-02-16T11:10:27.857Z,56.58
2024-02-16T11:11:25.472Z,56.51
2024-02-16T11:12:22.951Z,57.20
2024-02-16T11:13:24.536Z,55.54
2024-02-16T11:14:23.508Z,56.00
2024-02-16T11:15:35.483Z,55.64
2024-02-16T11:16:32.276Z,55.76
2024-02-16T11:17:29.974Z,55.31
2024-02-16T11:18:27.506Z,55.29
2024-02-16T11:19:24.263Z,56.53
2024-02-16T11:20:20.951Z,57.42
2024-02-16T11:21:17.863Z,56.14
2024-02-16T11:22:21.990Z,56.19
2024-02-16T11:23:18.846Z,57.11
2024-02-16T11:24:15.740Z,57.12
2024-02-16T11:25:12.423Z,56.66
2024-02-16T11:26:13.496Z,55.85
2024-02-16T11:27:11.936Z,55.65
2024-02-16T11:28:08.765Z,56.89
2024-02-16T11:29:05.537Z,57.39
2024-02-16T11:30:06.331Z,55.02
2024-02-16T11:31:04.145Z,56.06
2024-02-16T11:32:02.373Z,55.46
2024-02-16T11:32:59.024Z,55.34
2024-02-16T11:33:55.861Z,55.87
2024-02-16T11:34:52.635Z,55.03
2024-02-16T11:36:00.465Z,57.86
2024-02-16T11:36:58.304Z,54.66
2024-02-16T11:37:57.421Z,55.18
2024-02-16T11:38:54.280Z,55.09
2024-02-16T11:39:57.212Z,56.48
2024-02-16T11:41:00.017Z,54.22
2024-02-16T11:42:07.242Z,53.93
2024-02-16T11:43:04.070Z,54.95
2024-02-16T11:44:03.367Z,54.75
2024-02-16T11:44:59.959Z,55.59
2024-02-16T11:45:56.673Z,54.93
2024-02-16T11:46:55.774Z,54.52
2024-02-16T11:47:52.623Z,53.72
2024-02-16T11:48:50.075Z,54.30
2024-02-16T11:49:48.163Z,53.83
2024-02-16T11:50:45.009Z,54.19
2024-02-16T11:51:41.725Z,52.71
2024-02-16T11:52:41.943Z,53.42
2024-02-16T11:53:38.671Z,54.25
2024-02-16T11:54:36.505Z,53.89
2024-02-16T11:55:36.210Z,55.24
2024-02-16T11:56:33.120Z,55.32
2024-02-16T11:57:30.044Z,54.73
2024-02-16T11:58:27.865Z,53.58
2024-02-16T11:59:24.875Z,53.77
2024-02-16T12:00:21.922Z,55.39
2024-02-16T12:01:18.632Z,54.56
2024-02-16T12:02:25.657Z,52.30
2024-02-16T12:03:23.518Z,53.07
2024-02-16T12:04:28.113Z,52.30
2024-02-16T12:05:24.921Z,52.07
2024-02-16T12:06:25.191Z,52.43
2024-02-16T12:07:22.062Z,52.50
2024-02-16T12:08:20.044Z,52.33
2024-02-16T12:09:20.647Z,52.55
2024-02-16T12:10:18.709Z,53.44
2024-02-16T12:11:15.667Z,52.36
2024-02-16T12:12:12.377Z,50.88
2024-02-16T12:13:11.032Z,51.34
2024-02-16T12:14:07.833Z,52.10
2024-02-16T12:15:06.739Z,51.82
2024-02-16T12:16:04.177Z,52.10
2024-02-16T12:17:00.960Z,53.04
2024-02-16T12:18:02.578Z,52.08
2024-02-16T12:19:09.144Z,51.35
2024-02-16T12:20:13.597Z,52.53
2024-02-16T12:21:13.134Z,52.81
2024-02-16T12:22:09.774Z,52.64
2024-02-16T12:23:14.113Z,51.40
2024-02-16T12:24:11.942Z,52.81
2024-02-16T12:25:09.177Z,52.47